sensor_id;sensor_type;location;lat;lon;timestamp;temperature;humidity
70928;SHT31;58587;53.034;18.576;2022-07-29T11:15:13;25.71;39.81
70928;SHT31;58587;53.034;18.576;2022-07-29T11:20:37;25.98;41.12
70928;SHT31;58587;53.034;18.576;2022-07-29T11:23:28;26.04;41.70
70928;SHT31;58587;53.034;18.576;2022-07-29T11:31:09;26.05;41.26
70928;SHT31;58587;53.034;18.576;2022-07-29T11:33:35;26.04;41.24
70928;SHT31;58587;53.034;18.576;2022-07-29T11:36:08;25.98;41.93
70928;SHT31;58587;53.034;18.576;2022-07-29T11:38:34;25.98;41.63
70928;SHT31;58587;53.034;18.576;2022-07-29T11:41:22;25.97;41.67
70928;SHT31;58587;53.034;18.576;2022-07-29T11:43:56;25.89;40.84
70928;SHT31;58587;53.034;18.576;2022-07-29T11:46:45;25.85;40.68
70928;SHT31;58587;53.034;18.576;2022-07-29T11:49:26;25.81;40.87
70928;SHT31;58587;53.034;18.576;2022-07-29T11:51:53;25.75;41.79
70928;SHT31;58587;53.034;18.576;2022-07-29T11:54:26;25.84;41.66
70928;SHT31;58587;53.034;18.576;2022-07-29T11:56:57;25.87;40.33
70928;SHT31;58587;53.034;18.576;2022-07-29T11:59:24;25.81;40.66
70928;SHT31;58587;53.034;18.576;2022-07-29T12:01:56;25.89;40.44
70928;SHT31;58587;53.034;18.576;2022-07-29T12:04:22;25.89;40.31
70928;SHT31;58587;53.034;18.576;2022-07-29T12:06:55;25.88;40.14
70928;SHT31;58587;53.034;18.576;2022-07-29T12:09:23;25.84;40.54
70928;SHT31;58587;53.034;18.576;2022-07-29T12:11:57;25.67;38.76
70928;SHT31;58587;53.034;18.576;2022-07-29T12:14:28;25.64;39.49
70928;SHT31;58587;53.034;18.576;2022-07-29T12:16:53;25.64;39.44
70928;SHT31;58587;53.034;18.576;2022-07-29T12:19:19;25.67;39.20
70928;SHT31;58587;53.034;18.576;2022-07-29T12:21:50;25.63;39.91
70928;SHT31;58587;53.034;18.576;2022-07-29T12:24:19;25.67;40.66
70928;SHT31;58587;53.034;18.576;2022-07-29T12:29:16;25.85;40.24
70928;SHT31;58587;53.034;18.576;2022-07-29T12:31:43;25.94;41.06
70928;SHT31;58587;53.034;18.576;2022-07-29T12:34:10;26.05;40.51
70928;SHT31;58587;53.034;18.576;2022-07-29T12:36:36;26.21;40.68
70928;SHT31;58587;53.034;18.576;2022-07-29T12:39:02;26.39;39.88
70928;SHT31;58587;53.034;18.576;2022-07-29T12:41:28;26.59;38.78
70928;SHT31;58587;53.034;18.576;2022-07-29T12:43:54;26.93;39.09
70928;SHT31;58587;53.034;18.576;2022-07-29T12:46:20;27.48;38.30
70928;SHT31;58587;53.034;18.576;2022-07-29T12:48:50;28.45;37.30
70928;SHT31;58587;53.034;18.576;2022-07-29T12:51:34;29.21;35.86
70928;SHT31;58587;53.034;18.576;2022-07-29T12:54:14;29.65;34.18
70928;SHT31;58587;53.034;18.576;2022-07-29T12:56:41;29.93;32.45
70928;SHT31;58587;53.034;18.576;2022-07-29T12:59:18;30.29;32.47
70928;SHT31;58587;53.034;18.576;2022-07-29T13:01:45;30.84;31.06
70928;SHT31;58587;53.034;18.576;2022-07-29T13:04:28;31.15;31.15
70928;SHT31;58587;53.034;18.576;2022-07-29T13:09:39;31.73;31.04
70928;SHT31;58587;53.034;18.576;2022-07-29T13:12:07;31.88;28.29
70928;SHT31;58587;53.034;18.576;2022-07-29T13:14:44;32.14;29.03
70928;SHT31;58587;53.034;18.576;2022-07-29T13:17:20;31.63;29.15
70928;SHT31;58587;53.034;18.576;2022-07-29T13:19:53;31.55;29.23
70928;SHT31;58587;53.034;18.576;2022-07-29T13:22:23;31.96;29.06
70928;SHT31;58587;53.034;18.576;2022-07-29T13:24:52;32.26;28.54
70928;SHT31;58587;53.034;18.576;2022-07-29T13:27:26;32.27;27.92
70928;SHT31;58587;53.034;18.576;2022-07-29T13:29:52;32.14;28.86
70928;SHT31;58587;53.034;18.576;2022-07-29T13:32:20;32.65;27.13
70928;SHT31;58587;53.034;18.576;2022-07-29T13:34:45;33.25;27.41
70928;SHT31;58587;53.034;18.576;2022-07-29T13:37:11;33.42;26.82
70928;SHT31;58587;53.034;18.576;2022-07-29T13:39:37;34.03;25.68
70928;SHT31;58587;53.034;18.576;2022-07-29T13:42:06;34.76;26.21
70928;SHT31;58587;53.034;18.576;2022-07-29T13:44:31;35.07;24.32
70928;SHT31;58587;53.034;18.576;2022-07-29T13:46:57;35.25;23.26
70928;SHT31;58587;53.034;18.576;2022-07-29T13:49:24;36.02;23.64
70928;SHT31;58587;53.034;18.576;2022-07-29T13:51:49;36.29;22.99
70928;SHT31;58587;53.034;18.576;2022-07-29T13:54:15;36.66;23.36
70928;SHT31;58587;53.034;18.576;2022-07-29T13:56:41;36.67;22.10
70928;SHT31;58587;53.034;18.576;2022-07-29T13:59:06;35.88;22.86
70928;SHT31;58587;53.034;18.576;2022-07-29T14:01:34;35.14;24.34
70928;SHT31;58587;53.034;18.576;2022-07-29T14:03:59;36.27;22.23
70928;SHT31;58587;53.034;18.576;2022-07-29T14:06:24;36.48;21.16
70928;SHT31;58587;53.034;18.576;2022-07-29T14:08:50;36.32;21.64
70928;SHT31;58587;53.034;18.576;2022-07-29T14:11:15;37.14;20.98
70928;SHT31;58587;53.034;18.576;2022-07-29T14:13:41;37.43;21.13
70928;SHT31;58587;53.034;18.576;2022-07-29T14:16:06;37.70;21.02
70928;SHT31;58587;53.034;18.576;2022-07-29T14:18:32;38.31;20.13
70928;SHT31;58587;53.034;18.576;2022-07-29T14:20:58;38.19;19.50
70928;SHT31;58587;53.034;18.576;2022-07-29T14:23:24;38.19;19.47
70928;SHT31;58587;53.034;18.576;2022-07-29T14:25:49;38.02;20.45
70928;SHT31;58587;53.034;18.576;2022-07-29T14:28:15;38.13;20.12
70928;SHT31;58587;53.034;18.576;2022-07-29T14:30:40;38.06;20.51
70928;SHT31;58587;53.034;18.576;2022-07-29T14:33:06;38.24;20.06
70928;SHT31;58587;53.034;18.576;2022-07-29T14:35:31;38.41;19.92
70928;SHT31;58587;53.034;18.576;2022-07-29T14:37:57;38.56;20.19
70928;SHT31;58587;53.034;18.576;2022-07-29T14:40:22;38.34;19.98
70928;SHT31;58587;53.034;18.576;2022-07-29T14:42:48;38.29;20.21
70928;SHT31;58587;53.034;18.576;2022-07-29T14:45:13;38.19;20.34
70928;SHT31;58587;53.034;18.576;2022-07-29T14:47:39;38.41;20.47
70928;SHT31;58587;53.034;18.576;2022-07-29T14:50:05;38.19;20.29
70928;SHT31;58587;53.034;18.576;2022-07-29T14:52:31;38.12;20.14
70928;SHT31;58587;53.034;18.576;2022-07-29T14:54:57;37.11;20.39
70928;SHT31;58587;53.034;18.576;2022-07-29T14:57:22;37.79;20.03
70928;SHT31;58587;53.034;18.576;2022-07-29T14:59:48;37.64;20.61
70928;SHT31;58587;53.034;18.576;2022-07-29T15:02:13;37.85;20.11
70928;SHT31;58587;53.034;18.576;2022-07-29T15:04:38;37.31;20.15
70928;SHT31;58587;53.034;18.576;2022-07-29T15:07:04;37.35;20.48
70928;SHT31;58587;53.034;18.576;2022-07-29T15:09:29;37.36;20.45
70928;SHT31;58587;53.034;18.576;2022-07-29T15:11:55;37.42;20.22
70928;SHT31;58587;53.034;18.576;2022-07-29T15:14:21;36.98;21.23
70928;SHT31;58587;53.034;18.576;2022-07-29T15:16:46;37.05;20.37
70928;SHT31;58587;53.034;18.576;2022-07-29T15:19:11;36.84;21.05
70928;SHT31;58587;53.034;18.576;2022-07-29T15:21:37;36.40;21.09
70928;SHT31;58587;53.034;18.576;2022-07-29T15:24:03;35.86;21.84
70928;SHT31;58587;53.034;18.576;2022-07-29T15:26:28;35.25;21.40
70928;SHT31;58587;53.034;18.576;2022-07-29T15:28:54;34.54;22.58
70928;SHT31;58587;53.034;18.576;2022-07-29T15:31:21;35.25;21.87
70928;SHT31;58587;53.034;18.576;2022-07-29T15:33:47;35.24;21.96
70928;SHT31;58587;53.034;18.576;2022-07-29T15:36:12;34.91;22.17
70928;SHT31;58587;53.034;18.576;2022-07-29T15:38:38;34.68;23.12
70928;SHT31;58587;53.034;18.576;2022-07-29T15:41:06;34.98;22.32
70928;SHT31;58587;53.034;18.576;2022-07-29T15:43:32;34.80;22.73
70928;SHT31;58587;53.034;18.576;2022-07-29T15:45:57;34.20;22.28
70928;SHT31;58587;53.034;18.576;2022-07-29T15:48:41;34.26;23.00
70928;SHT31;58587;53.034;18.576;2022-07-29T15:51:07;34.07;22.65
70928;SHT31;58587;53.034;18.576;2022-07-29T15:53:32;33.73;23.26
70928;SHT31;58587;53.034;18.576;2022-07-29T15:55:58;33.52;23.83
70928;SHT31;58587;53.034;18.576;2022-07-29T15:58:23;33.00;24.44
70928;SHT31;58587;53.034;18.576;2022-07-29T16:00:49;32.88;24.18
70928;SHT31;58587;53.034;18.576;2022-07-29T16:03:14;32.05;25.25
70928;SHT31;58587;53.034;18.576;2022-07-29T16:05:40;31.61;25.74
70928;SHT31;58587;53.034;18.576;2022-07-29T16:08:06;31.06;26.50
70928;SHT31;58587;53.034;18.576;2022-07-29T16:10:32;30.56;26.97
70928;SHT31;58587;53.034;18.576;2022-07-29T16:12:57;29.89;27.99
70928;SHT31;58587;53.034;18.576;2022-07-29T16:15:23;29.69;28.63
70928;SHT31;58587;53.034;18.576;2022-07-29T16:17:48;29.28;28.63
70928;SHT31;58587;53.034;18.576;2022-07-29T16:20:15;29.01;29.31
70928;SHT31;58587;53.034;18.576;2022-07-29T16:22:40;28.83;29.49
70928;SHT31;58587;53.034;18.576;2022-07-29T16:25:06;28.40;29.96
70928;SHT31;58587;53.034;18.576;2022-07-29T16:27:32;27.99;30.34
70928;SHT31;58587;53.034;18.576;2022-07-29T16:29:57;27.91;30.40
70928;SHT31;58587;53.034;18.576;2022-07-29T16:32:23;27.66;31.53
70928;SHT31;58587;53.034;18.576;2022-07-29T16:34:48;27.61;31.07
70928;SHT31;58587;53.034;18.576;2022-07-29T16:37:14;27.43;31.50
70928;SHT31;58587;53.034;18.576;2022-07-29T16:39:40;27.18;32.18
70928;SHT31;58587;53.034;18.576;2022-07-29T16:42:06;27.13;32.11
70928;SHT31;58587;53.034;18.576;2022-07-29T16:44:32;27.03;32.64
70928;SHT31;58587;53.034;18.576;2022-07-29T16:46:58;26.90;32.02
70928;SHT31;58587;53.034;18.576;2022-07-29T16:49:24;26.79;32.60
70928;SHT31;58587;53.034;18.576;2022-07-29T16:51:49;26.78;32.84
70928;SHT31;58587;53.034;18.576;2022-07-29T16:54:15;26.64;32.11
70928;SHT31;58587;53.034;18.576;2022-07-29T16:56:40;26.56;35.01
70928;SHT31;58587;53.034;18.576;2022-07-29T16:59:06;26.43;32.85
70928;SHT31;58587;53.034;18.576;2022-07-29T17:01:31;26.35;33.14
70928;SHT31;58587;53.034;18.576;2022-07-29T17:03:57;26.21;32.76
70928;SHT31;58587;53.034;18.576;2022-07-29T17:06:35;26.17;33.39
70928;SHT31;58587;53.034;18.576;2022-07-29T17:09:02;25.99;33.62
70928;SHT31;58587;53.034;18.576;2022-07-29T17:11:28;25.91;33.76
70928;SHT31;58587;53.034;18.576;2022-07-29T17:13:54;25.85;33.94
70928;SHT31;58587;53.034;18.576;2022-07-29T17:16:19;25.75;34.12
70928;SHT31;58587;53.034;18.576;2022-07-29T17:18:49;25.64;35.22
70928;SHT31;58587;53.034;18.576;2022-07-29T17:21:15;25.60;34.77
70928;SHT31;58587;53.034;18.576;2022-07-29T17:23:41;25.53;34.83
70928;SHT31;58587;53.034;18.576;2022-07-29T17:26:06;25.50;34.44
70928;SHT31;58587;53.034;18.576;2022-07-29T17:28:32;25.46;35.21
70928;SHT31;58587;53.034;18.576;2022-07-29T17:30:57;25.41;34.98
70928;SHT31;58587;53.034;18.576;2022-07-29T17:33:23;25.30;35.81
70928;SHT31;58587;53.034;18.576;2022-07-29T17:35:48;25.22;37.39
70928;SHT31;58587;53.034;18.576;2022-07-29T17:38:32;25.12;37.36
70928;SHT31;58587;53.034;18.576;2022-07-29T17:40:58;25.07;36.95
70928;SHT31;58587;53.034;18.576;2022-07-29T17:43:23;24.97;36.12
70928;SHT31;58587;53.034;18.576;2022-07-29T17:45:48;24.90;35.68
70928;SHT31;58587;53.034;18.576;2022-07-29T17:48:14;24.82;36.30
70928;SHT31;58587;53.034;18.576;2022-07-29T17:50:40;24.65;36.70
70928;SHT31;58587;53.034;18.576;2022-07-29T17:53:05;24.56;37.19
70928;SHT31;58587;53.034;18.576;2022-07-29T17:55:30;24.51;37.64
70928;SHT31;58587;53.034;18.576;2022-07-29T17:57:56;24.41;38.29
70928;SHT31;58587;53.034;18.576;2022-07-29T18:00:21;24.36;38.90
70928;SHT31;58587;53.034;18.576;2022-07-29T18:02:49;24.31;38.99
70928;SHT31;58587;53.034;18.576;2022-07-29T18:05:14;24.20;40.21
70928;SHT31;58587;53.034;18.576;2022-07-29T18:07:40;24.10;40.82
70928;SHT31;58587;53.034;18.576;2022-07-29T18:10:05;23.97;40.93
70928;SHT31;58587;53.034;18.576;2022-07-29T18:12:31;23.85;41.11
70928;SHT31;58587;53.034;18.576;2022-07-29T18:14:56;23.81;41.14
70928;SHT31;58587;53.034;18.576;2022-07-29T18:17:22;23.57;42.35
70928;SHT31;58587;53.034;18.576;2022-07-29T18:19:47;23.54;42.06
70928;SHT31;58587;53.034;18.576;2022-07-29T18:22:13;23.46;42.26
70928;SHT31;58587;53.034;18.576;2022-07-29T18:24:40;23.39;43.49
70928;SHT31;58587;53.034;18.576;2022-07-29T18:27:05;23.29;43.78
70928;SHT31;58587;53.034;18.576;2022-07-29T18:29:30;23.23;44.02
70928;SHT31;58587;53.034;18.576;2022-07-29T18:31:56;23.13;43.92
70928;SHT31;58587;53.034;18.576;2022-07-29T18:34:24;23.06;44.32
70928;SHT31;58587;53.034;18.576;2022-07-29T18:36:49;22.95;44.30
70928;SHT31;58587;53.034;18.576;2022-07-29T18:39:15;22.88;44.98
70928;SHT31;58587;53.034;18.576;2022-07-29T18:41:40;22.79;45.37
70928;SHT31;58587;53.034;18.576;2022-07-29T18:44:08;22.78;44.69
70928;SHT31;58587;53.034;18.576;2022-07-29T18:46:34;22.65;45.64
70928;SHT31;58587;53.034;18.576;2022-07-29T18:48:59;22.65;45.14
70928;SHT31;58587;53.034;18.576;2022-07-29T18:51:25;22.52;46.07
70928;SHT31;58587;53.034;18.576;2022-07-29T18:53:50;22.38;45.91
70928;SHT31;58587;53.034;18.576;2022-07-29T18:56:17;22.30;46.12
70928;SHT31;58587;53.034;18.576;2022-07-29T18:58:42;22.20;47.22
70928;SHT31;58587;53.034;18.576;2022-07-29T19:01:07;22.11;47.14
70928;SHT31;58587;53.034;18.576;2022-07-29T19:03:33;22.00;47.21
70928;SHT31;58587;53.034;18.576;2022-07-29T19:05:59;21.94;47.04
70928;SHT31;58587;53.034;18.576;2022-07-29T19:08:24;21.83;47.13
70928;SHT31;58587;53.034;18.576;2022-07-29T19:10:50;21.77;46.95
70928;SHT31;58587;53.034;18.576;2022-07-29T19:13:15;21.70;46.53
70928;SHT31;58587;53.034;18.576;2022-07-29T19:15:43;21.57;47.13
70928;SHT31;58587;53.034;18.576;2022-07-29T19:18:09;21.53;47.31
70928;SHT31;58587;53.034;18.576;2022-07-29T19:20:37;21.43;47.32
70928;SHT31;58587;53.034;18.576;2022-07-29T19:23:03;21.42;47.39
70928;SHT31;58587;53.034;18.576;2022-07-29T19:25:29;21.33;47.64
70928;SHT31;58587;53.034;18.576;2022-07-29T19:27:55;21.18;48.47
70928;SHT31;58587;53.034;18.576;2022-07-29T19:30:20;21.13;48.07
70928;SHT31;58587;53.034;18.576;2022-07-29T19:32:46;21.16;47.58
70928;SHT31;58587;53.034;18.576;2022-07-29T19:35:11;21.08;47.83
70928;SHT31;58587;53.034;18.576;2022-07-29T19:37:53;21.00;47.74
70928;SHT31;58587;53.034;18.576;2022-07-29T19:40:20;20.87;48.44
70928;SHT31;58587;53.034;18.576;2022-07-29T19:42:46;20.81;49.05
70928;SHT31;58587;53.034;18.576;2022-07-29T19:45:16;20.69;49.65
70928;SHT31;58587;53.034;18.576;2022-07-29T19:47:42;20.65;49.88
70928;SHT31;58587;53.034;18.576;2022-07-29T19:50:08;20.64;49.46
70928;SHT31;58587;53.034;18.576;2022-07-29T19:52:34;20.54;49.40
70928;SHT31;58587;53.034;18.576;2022-07-29T19:55:00;20.54;49.34
70928;SHT31;58587;53.034;18.576;2022-07-29T19:57:26;20.44;50.20
70928;SHT31;58587;53.034;18.576;2022-07-29T19:59:51;20.36;50.27
70928;SHT31;58587;53.034;18.576;2022-07-29T20:02:17;20.28;50.93
70928;SHT31;58587;53.034;18.576;2022-07-29T20:04:42;20.20;50.58
70928;SHT31;58587;53.034;18.576;2022-07-29T20:07:08;20.20;50.52
70928;SHT31;58587;53.034;18.576;2022-07-29T20:09:33;20.20;50.46
70928;SHT31;58587;53.034;18.576;2022-07-29T20:11:59;20.14;50.35
70928;SHT31;58587;53.034;18.576;2022-07-29T20:14:24;20.07;51.06
70928;SHT31;58587;53.034;18.576;2022-07-29T20:16:50;20.03;51.03
70928;SHT31;58587;53.034;18.576;2022-07-29T20:19:17;20.00;51.44
70928;SHT31;58587;53.034;18.576;2022-07-29T20:21:43;19.98;51.53
70928;SHT31;58587;53.034;18.576;2022-07-29T20:24:08;19.96;51.02
70928;SHT31;58587;53.034;18.576;2022-07-29T20:26:34;19.94;50.84
70928;SHT31;58587;53.034;18.576;2022-07-29T20:29:00;19.94;51.93
70928;SHT31;58587;53.034;18.576;2022-07-29T20:31:31;19.90;51.57
70928;SHT31;58587;53.034;18.576;2022-07-29T20:33:57;19.86;51.38
70928;SHT31;58587;53.034;18.576;2022-07-29T20:36:25;19.83;52.11
70928;SHT31;58587;53.034;18.576;2022-07-29T20:38:51;19.86;51.36
70928;SHT31;58587;53.034;18.576;2022-07-29T20:41:17;19.82;51.65
70928;SHT31;58587;53.034;18.576;2022-07-29T20:43:42;19.74;51.19
70928;SHT31;58587;53.034;18.576;2022-07-29T20:46:08;19.69;52.41
70928;SHT31;58587;53.034;18.576;2022-07-29T20:48:34;19.62;52.67
70928;SHT31;58587;53.034;18.576;2022-07-29T20:50:59;19.52;53.08
70928;SHT31;58587;53.034;18.576;2022-07-29T20:53:25;19.51;52.57
70928;SHT31;58587;53.034;18.576;2022-07-29T20:55:50;19.39;53.00
70928;SHT31;58587;53.034;18.576;2022-07-29T20:58:16;19.35;53.06
70928;SHT31;58587;53.034;18.576;2022-07-29T21:00:42;19.33;53.53
70928;SHT31;58587;53.034;18.576;2022-07-29T21:03:08;19.23;53.65
70928;SHT31;58587;53.034;18.576;2022-07-29T21:05:35;19.19;54.24
70928;SHT31;58587;53.034;18.576;2022-07-29T21:08:01;19.18;53.60
70928;SHT31;58587;53.034;18.576;2022-07-29T21:10:26;19.04;54.75
70928;SHT31;58587;53.034;18.576;2022-07-29T21:12:53;19.00;53.95
70928;SHT31;58587;53.034;18.576;2022-07-29T21:15:19;18.98;53.81
70928;SHT31;58587;53.034;18.576;2022-07-29T21:17:46;18.91;55.04
70928;SHT31;58587;53.034;18.576;2022-07-29T21:20:17;18.83;54.58
70928;SHT31;58587;53.034;18.576;2022-07-29T21:22:43;18.74;55.70
70928;SHT31;58587;53.034;18.576;2022-07-29T21:25:09;18.68;55.97
70928;SHT31;58587;53.034;18.576;2022-07-29T21:27:36;18.63;55.94
70928;SHT31;58587;53.034;18.576;2022-07-29T21:30:20;18.58;56.52
70928;SHT31;58587;53.034;18.576;2022-07-29T21:32:46;18.53;57.21
70928;SHT31;58587;53.034;18.576;2022-07-29T21:35:11;18.48;57.53
70928;SHT31;58587;53.034;18.576;2022-07-29T21:37:38;18.48;57.44
70928;SHT31;58587;53.034;18.576;2022-07-29T21:40:05;18.44;57.47
70928;SHT31;58587;53.034;18.576;2022-07-29T21:42:30;18.41;58.11
70928;SHT31;58587;53.034;18.576;2022-07-29T21:44:56;18.33;58.38
70928;SHT31;58587;53.034;18.576;2022-07-29T21:47:21;18.27;59.29
70928;SHT31;58587;53.034;18.576;2022-07-29T21:49:47;18.22;59.41
70928;SHT31;58587;53.034;18.576;2022-07-29T21:52:13;18.16;60.31
70928;SHT31;58587;53.034;18.576;2022-07-29T21:54:38;18.17;59.87
70928;SHT31;58587;53.034;18.576;2022-07-29T21:57:04;18.14;60.32
70928;SHT31;58587;53.034;18.576;2022-07-29T21:59:29;18.07;60.33
70928;SHT31;58587;53.034;18.576;2022-07-29T22:01:55;17.93;61.24
70928;SHT31;58587;53.034;18.576;2022-07-29T22:04:25;17.92;61.05
70928;SHT31;58587;53.034;18.576;2022-07-29T22:06:50;17.92;61.12
70928;SHT31;58587;53.034;18.576;2022-07-29T22:09:16;17.86;61.55
70928;SHT31;58587;53.034;18.576;2022-07-29T22:11:41;17.85;61.55
70928;SHT31;58587;53.034;18.576;2022-07-29T22:14:07;17.83;61.21
70928;SHT31;58587;53.034;18.576;2022-07-29T22:16:33;17.79;61.78
70928;SHT31;58587;53.034;18.576;2022-07-29T22:18:59;17.78;61.81
70928;SHT31;58587;53.034;18.576;2022-07-29T22:21:24;17.71;61.89
70928;SHT31;58587;53.034;18.576;2022-07-29T22:23:50;17.68;61.70
70928;SHT31;58587;53.034;18.576;2022-07-29T22:26:15;17.68;61.69
70928;SHT31;58587;53.034;18.576;2022-07-29T22:28:44;17.61;62.80
70928;SHT31;58587;53.034;18.576;2022-07-29T22:31:10;17.59;62.18
70928;SHT31;58587;53.034;18.576;2022-07-29T22:33:36;17.58;61.87
70928;SHT31;58587;53.034;18.576;2022-07-29T22:36:02;17.56;61.78
70928;SHT31;58587;53.034;18.576;2022-07-29T22:38:27;17.51;61.98
70928;SHT31;58587;53.034;18.576;2022-07-29T22:40:53;17.45;62.13
70928;SHT31;58587;53.034;18.576;2022-07-29T22:43:18;17.44;62.24
70928;SHT31;58587;53.034;18.576;2022-07-29T22:45:44;17.36;62.74
70928;SHT31;58587;53.034;18.576;2022-07-29T22:48:09;17.35;62.38
70928;SHT31;58587;53.034;18.576;2022-07-29T22:50:35;17.30;62.41
70928;SHT31;58587;53.034;18.576;2022-07-29T22:53:00;17.27;62.41
70928;SHT31;58587;53.034;18.576;2022-07-29T22:55:26;17.21;63.16
70928;SHT31;58587;53.034;18.576;2022-07-29T22:57:51;17.17;62.91
70928;SHT31;58587;53.034;18.576;2022-07-29T23:00:17;17.12;63.06
70928;SHT31;58587;53.034;18.576;2022-07-29T23:02:43;17.07;63.51
70928;SHT31;58587;53.034;18.576;2022-07-29T23:05:08;17.03;62.90
70928;SHT31;58587;53.034;18.576;2022-07-29T23:07:34;16.99;63.50
70928;SHT31;58587;53.034;18.576;2022-07-29T23:10:00;16.95;63.62
70928;SHT31;58587;53.034;18.576;2022-07-29T23:12:26;16.93;63.06
70928;SHT31;58587;53.034;18.576;2022-07-29T23:14:51;16.87;63.21
70928;SHT31;58587;53.034;18.576;2022-07-29T23:17:17;16.87;63.67
70928;SHT31;58587;53.034;18.576;2022-07-29T23:19:42;16.80;63.19
70928;SHT31;58587;53.034;18.576;2022-07-29T23:22:08;16.76;64.03
70928;SHT31;58587;53.034;18.576;2022-07-29T23:24:33;16.74;63.50
70928;SHT31;58587;53.034;18.576;2022-07-29T23:26:58;16.69;64.12
70928;SHT31;58587;53.034;18.576;2022-07-29T23:29:24;16.67;64.15
70928;SHT31;58587;53.034;18.576;2022-07-29T23:31:49;16.57;64.17
70928;SHT31;58587;53.034;18.576;2022-07-29T23:34:15;16.56;64.39
70928;SHT31;58587;53.034;18.576;2022-07-29T23:36:40;16.52;64.39
70928;SHT31;58587;53.034;18.576;2022-07-29T23:39:07;16.45;64.46
70928;SHT31;58587;53.034;18.576;2022-07-29T23:41:35;16.45;64.62
70928;SHT31;58587;53.034;18.576;2022-07-29T23:44:02;16.39;64.36
70928;SHT31;58587;53.034;18.576;2022-07-29T23:46:27;16.33;64.86
70928;SHT31;58587;53.034;18.576;2022-07-29T23:48:52;16.28;65.30
70928;SHT31;58587;53.034;18.576;2022-07-29T23:51:19;16.26;65.31
70928;SHT31;58587;53.034;18.576;2022-07-29T23:53:47;16.18;65.26
70928;SHT31;58587;53.034;18.576;2022-07-29T23:56:13;16.16;65.58
70928;SHT31;58587;53.034;18.576;2022-07-29T23:58:38;16.12;66.04
